x

North Michigan- Halfway Between North Manitou And Washington Islands. (45002) Wave Buoy

4:50am - Thu 28th May 2015 All times are CDT. -5 hours from GMT.

  • Sig Wave height 1.3ft
  • Swell Direction
  • Peak Period 4s
  • Average Period 3s
  • Wind
    9mph
  • Sea Temp 37°f
  • Air Temp 41°f
  • Sea Pressure 1020.7mb
  • North Michigan- Halfway Between North Manitou And Washington Islands.
  • North Michigan- Halfway Between North Manitou And Washington Islands.

More Historic Weather Station data

Upgrade to MSW Pro to gain access to the past 30 days of data for over 8000 Wavebouys and Weather Stations around the globe.

Join Pro

Comparision Forecast

View Surf forecast
   
Thu 05/28 4:50am 1.3ft 4s 3s 9
mph
1020.7mb 37f 41f
3:50am 1.3ft 4s 3s 7 9 mph 1020mb 37f 42f
2:50am 1.3ft 3s 3s 9
mph
1019.4mb 37f 44f
1:50am 1.3ft 4s 3s 16 18 mph 1018.8mb 37f 45f
12:50am 1.3ft 4s 3s 11 13 mph 1018.5mb 37f 45f
Wed 05/27 11:50pm 1.3ft 4s 3s 13 16 mph 1018.1mb 37f 43f
10:50pm 1.3ft 3s 3s 9 11 mph 1017.4mb 37f 44f
9:50pm 1.3ft 4s 3s 7 11 mph 1018.3mb 37f 42f
8:50pm 1.3ft 5s 3s 11 13 mph 1015.8mb 37f 42f
7:50pm 1.3ft 4s 4s 13
mph
1014.7mb 37f 42f
6:50pm 1.3ft 5s 4s 11 13 mph 1014.6mb 37f 43f
5:50pm 1.3ft 5s 4s 11 13 mph 1013.9mb 37f 44f
4:50pm 1.6ft 5s 4s 11 13 mph 1013.6mb 37f 45f
3:50pm 1.6ft 5s 4s 11
mph
1013.3mb 37f 44f
2:50pm 2ft 5s 4s 9 11 mph 1013.1mb 37f 42f
1:50pm 2ft 6s 4s 11
mph
1012.3mb 37f 45f
12:50pm 2.5ft 6s 4s 11
mph
1012mb 37f 43f
11:50am 2.5ft 6s 5s 13
mph
1011.2mb 37f 45f
10:50am 3.5ft 6s 5s 11
mph
1010.3mb 37f 44f
9:50am 4ft 6s 5s 9
mph
1009.2mb 37f 41f
8:50am 4.5ft 6s 5s 9
mph
1008.7mb 37f 44f
7:50am 5ft 6s 5s 11
mph
1008mb 37f 44f
6:50am 5ft 6s 5s 16 18 mph 1006.5mb 37f 44f
5:50am 5ft 6s 5s 20 22 mph 1004.9mb 37f 43f
4:50am 4.5ft 6s 5s 22 25 mph 1003.5mb 37f 44f
3:50am 4ft 5s 4s 20 22 mph 1003.7mb 37f 43f
2:50am 3.5ft 5s 4s 20 25 mph 1003.8mb 37f 44f
1:50am 3ft 5s 4s 18 20 mph 1004.1mb 37f 43f
12:50am 2.5ft 4s 4s 18 20 mph 1004.1mb 37f 43f
Tue 05/26 11:50pm 1.6ft 3s 3s 18
mph
1004.4mb 37f 44f
10:50pm 1.3ft 4s 3s 13 18 mph 1005.1mb 37f 47f
9:50pm 1.3ft 5s 3s 4 7 mph 1005.7mb 37f 44f
8:50pm 1.6ft 4s 3s 11 13 mph 1005.7mb 37f 46f
7:50pm 1.3ft 5s 4s 13 16 mph 1006.1mb 37f 43f
6:50pm 1.6ft 5s 4s 11 13 mph 1006.8mb 37f 43f
5:50pm 2ft 5s 4s 7 11 mph 1007.7mb 37f 42f
4:50pm 2ft 5s 4s 2 4 mph 1008mb 37f 46f
3:50pm 2.5ft 5s 4s 7
mph
1008.7mb 37f 49f
2:50pm 2.5ft 5s 4s 7 9 mph 1010.4mb 37f 47f
1:50pm 2ft 5s 4s 11 13 mph 1011.4mb 37f 45f
12:50pm 2.5ft 5s 4s 13 16 mph 1011.9mb 37f 45f
11:50am 2.5ft 4s 4s 18
mph
1012mb 37f 44f
10:50am 2.5ft 5s 4s 16 18 mph 1012.1mb 37f 44f
9:50am 2.5ft 5s 4s 13 16 mph 1012.3mb 37f 43f
8:50am 2ft 4s 4s 18 20 mph 1012.4mb 37f 43f
7:50am 2ft 5s 4s 13
mph
1012.5mb 37f 41f
6:50am 2.5ft 5s 4s 13 16 mph 1012.3mb 37f 42f
5:50am 2ft 5s 4s 18 20 mph 1011.6mb 37f 42f
4:50am 2ft 5s 4s 11 13 mph 1011.3mb 37f 41f
3:50am 2ft 5s 4s 11 13 mph 1011.3mb 37f 41f
2:50am 2.5ft 5s 4s 11 13 mph 1011mb 37f 42f
1:50am 2.5ft 5s 4s 13 18 mph 1010.9mb 37f 42f
12:50am 2.5ft 5s 4s 13 16 mph 1010.6mb 37f 45f
Mon 05/25 11:50pm 2.5ft 5s 4s 16 18 mph 1010.4mb 37f 44f
10:50pm 2.5ft 6s 4s 11 16 mph 1010mb 37f 43f
9:50pm 3ft 6s 4s 13 16 mph 1009.6mb 37f 42f
8:50pm 3.5ft 6s 4s 13 16 mph 1009.2mb 37f 42f
7:50pm 3.5ft 6s 5s 18
mph
1008.7mb 37f 42f
6:50pm 3.5ft 5s 4s 18 20 mph 1008mb 37f 42f
5:50pm 4.5ft 6s 5s 18 22 mph 1007.9mb 37f 42f
4:50pm 4ft 6s 5s 18 20 mph 1007.9mb 37f 43f
3:50pm 5ft 6s 5s 18 20 mph 1007.4mb 37f 43f
2:50pm 4ft 5s 4s 25 27 mph 1006.4mb 37f 44f
1:50pm 3ft 4s 4s 20 22 mph 1006.2mb 37f 45f
12:50pm 2.5ft 4s 3s 22 25 mph 1006.2mb 37f 46f
11:50am 1.6ft 3s 3s 18 22 mph 1007.2mb 37f 46f
10:50am 0.7ft  -  3s 13 16 mph 1008.2mb 37f 44f
9:50am 0.7ft  -  3s 11 13 mph 1009mb 37f 46f
8:50am 1ft 3s 3s 7 9 mph 1009.9mb 37f 46f
7:50am 1ft 3s 3s 9
mph
1010.4mb 36f 43f
6:50am 1ft 3s 3s 13
mph
1010.4mb 36f 44f
5:50am 1ft 3s 3s 13
mph
1010.9mb 36f 44f
4:50am 1ft 3s 3s 16 18 mph 1011.3mb 36f 46f
3:50am 0.7ft  -  3s 13 16 mph 1012mb 36f 44f
2:50am 0.7ft  -  3s 11 13 mph 1013mb 36f 44f
1:50am 0.7ft  -  3s 16 18 mph 1013.3mb 36f 45f
12:50am 1ft 4s 3s 11 13 mph 1015.2mb 36f 45f
Sun 05/24 11:50pm 1ft 4s 4s 11
mph
1016.1mb 36f 45f
10:50pm 1.3ft 4s 4s 7 9 mph 1016.9mb 36f 44f
9:50pm 1ft 3s 3s 7 9 mph 1017.6mb 36f 42f
8:50pm 1ft 3s 3s  -  2 mph 1017.9mb 36f 45f
7:50pm 1.3ft 4s 3s 7
mph
1018.2mb 36f 44f
6:50pm 1.6ft 4s 3s 9
mph
1018.8mb 36f 44f
5:50pm 1.3ft 4s 3s 13 18 mph 1018.6mb 36f 45f
4:50pm 1.3ft 3s 3s 13 16 mph 1019.3mb 36f 44f
3:50pm 0.7ft  -  3s 13
mph
1019.9mb 36f 42f
2:50pm 0.7ft  -  3s 9 11 mph 1020mb 37f 41f
1:50pm 0.7ft  -  3s 11 13 mph 1020.7mb 36f 41f
12:50pm 0.3ft  -  3s 11 13 mph 1021.1mb 37f 42f
11:50am 0.3ft  -  3s 7 9 mph 1021.3mb 37f 43f
10:50am 0.3ft  -  3s 4
mph
1021.8mb 36f 44f